Hickman, KY

8:59 AM CST on March 06, 2015 (GMT -0600)
APRSWXNET Dorena MO US | Change Station
CLOSE
Current Station
Personal Weather Station
Location: Wolf Island, MO
Elevation: 275 ft
Nearby Weather Stations

Elev 275 ft 36.66 °N, 89.20 °W | Updated 30 minutes ago

Partly Cloudy
Partly Cloudy
11 °F
Feels Like 11 °F
N
0
Wind Variable Wind from WNW
Gusts 1.0 mph

Today
High -- | Low -- °F
--% Chance of Precip.
Yesterday
High -- | Low -- °F
Precip. -- in
6:20 AM 5:55 PM
Full, 99% visible
Pressure 30.63 in
Visibility 10.0 miles
Clouds Clear
Windchill 11 °F
Dew Point 9 °F
Humidity 90%
Rainfall in
Snow Depth Not available.
UV 3 out of 12
Pollen 4.50 out of 12
Air Quality Not available.
Flu Activity Not available.
METAR KUCY 061455Z AUTO 00000KT 10SM CLR M09/M13 A3063 RMK

More Conditions Fewer Conditions

Pressure 30.63 in
Visibility 10.0 miles
Clouds Clear
Windchill 11 °F
Dew Point 9 °F
Humidity 90%
Rainfall in
Snow Depth Not available.
UV 3 out of 12
Pollen 4.50 out of 12
Air Quality Not available.
Flu Activity Not available.
METAR KUCY 061455Z AUTO 00000KT 10SM CLR M09/M13 A3063 RMK

More Conditions Fewer Conditions

10-Day Weather Forecast

Almanac

Astronomy

Mar. 06, 2015 Rise Set
Actual Time
Civil Twilight
Nautical Twilight
Astronomical Twilight
Moon
Length of Visible Light
Length of Day
Tomorrow will be .
, % of the Moon is Illuminated

Today's Extremes

State Highs State Lows

Community

WunderPhotos

Upload Photos

1,803,285 photos uploaded!

WunderBlogs® & News

Nearby

Air Quality

  Air Quality AQ Index Pollutant
Not available.

Snow Depth

Station Depth Elevation

Earthquake Activity

City Distance Mag. Time & Date
Minimum magnitude displayed is 2.5.

Coastal Water Temperatures

Place Temperature

Nearby Weather Stations

Flood Warning
Statement as of 9:36 PM CST on March 05, 2015

The Flood Warning continues for
the Ohio River at Cairo.
* From Tuesday morning until further notice.
* At 9:00 PM Thursday the stage was 29.8 feet.
* Flood stage is 40.0 feet.
* Forecast... the river is expected to rise to near flood stage
Tuesday morning.
* Impact... at 40.0 feet... minor flooding occurs affecting mainly
agricultural bottomland and low lying areas.


Lat... Lon 3709 8946 3651 8918 3680 8900 3709 8907
      3717 8916